createdAt,value
2018-06-03T00:01:46.631Z,98.70
2018-06-03T00:04:15.319Z,98.90
2018-06-03T00:06:43.989Z,99.60
2018-06-03T00:09:12.704Z,99.90
2018-06-03T00:11:41.400Z,99.90
2018-06-03T00:14:10.203Z,99.90
2018-06-03T00:16:39.046Z,99.90
2018-06-03T00:19:07.923Z,99.90
2018-06-03T00:21:43.194Z,99.90
2018-06-03T00:24:11.966Z,99.90
2018-06-03T00:26:40.693Z,99.90
2018-06-03T00:29:09.965Z,99.30
2018-06-03T00:31:38.863Z,99.40
2018-06-03T00:34:07.696Z,99.20
2018-06-03T00:36:44.470Z,98.60
2018-06-03T00:39:13.183Z,98.20
2018-06-03T00:41:41.901Z,98.30
2018-06-03T00:44:10.577Z,96.70
2018-06-03T00:46:39.376Z,95.70
2018-06-03T00:49:08.302Z,98.00
2018-06-03T00:51:37.212Z,96.70
2018-06-03T00:54:06.157Z,95.20
2018-06-03T00:56:46.065Z,95.40
2018-06-03T00:59:14.723Z,95.40
2018-06-03T01:01:43.372Z,95.10
2018-06-03T01:04:12.043Z,94.60
2018-06-03T01:06:40.770Z,95.20
2018-06-03T01:09:09.527Z,95.20
2018-06-03T01:11:38.465Z,94.60
2018-06-03T01:14:10.815Z,95.40
2018-06-03T01:16:39.676Z,95.50
2018-06-03T01:19:08.499Z,95.70
2018-06-03T01:21:37.375Z,95.00
2018-06-03T01:24:06.351Z,94.80
2018-06-03T01:26:35.356Z,94.10
2018-06-03T01:29:04.375Z,94.60
2018-06-03T01:31:33.228Z,96.00
2018-06-03T01:34:01.914Z,96.80
2018-06-03T01:36:30.538Z,97.90
2018-06-03T01:38:59.223Z,96.80
2018-06-03T01:41:27.911Z,95.70
2018-06-03T01:43:56.588Z,96.20
2018-06-03T01:46:31.940Z,95.90
2018-06-03T01:49:00.573Z,96.10
2018-06-03T01:51:29.263Z,97.10
2018-06-03T01:53:57.939Z,96.50
2018-06-03T01:56:26.619Z,97.20
2018-06-03T01:58:55.410Z,96.80
2018-06-03T02:01:24.306Z,97.90
2018-06-03T02:03:53.039Z,98.40
2018-06-03T02:06:21.702Z,98.80
2018-06-03T02:08:50.407Z,99.80
2018-06-03T02:11:19.067Z,99.50
2018-06-03T02:13:47.722Z,99.90
2018-06-03T02:16:16.407Z,99.90
2018-06-03T02:18:45.085Z,99.90
2018-06-03T02:21:13.751Z,99.90
2018-06-03T02:23:42.501Z,99.90
2018-06-03T02:26:11.197Z,99.90
2018-06-03T02:28:39.987Z,99.90
2018-06-03T02:31:08.886Z,99.90
2018-06-03T02:33:37.755Z,99.90
2018-06-03T02:36:06.931Z,99.90
2018-06-03T02:38:36.148Z,99.90
2018-06-03T02:41:05.143Z,99.90
2018-06-03T02:43:33.985Z,99.90
2018-06-03T02:46:02.678Z,99.90
2018-06-03T02:48:31.381Z,99.90
2018-06-03T02:51:00.045Z,99.90
2018-06-03T02:53:28.754Z,99.90
2018-06-03T02:55:57.459Z,99.90
2018-06-03T02:58:26.187Z,99.90
2018-06-03T03:00:55.011Z,99.90
2018-06-03T03:03:23.946Z,99.90
2018-06-03T03:05:52.631Z,99.90
2018-06-03T03:08:21.348Z,99.90
2018-06-03T03:10:50.075Z,99.90
2018-06-03T03:13:18.820Z,99.90
2018-06-03T03:15:47.598Z,99.90
2018-06-03T03:18:16.420Z,99.90
2018-06-03T03:20:45.678Z,99.90
2018-06-03T03:23:14.847Z,99.90
2018-06-03T03:25:43.712Z,99.90
2018-06-03T03:28:12.505Z,99.90
2018-06-03T03:30:41.212Z,99.90
2018-06-03T03:33:09.867Z,99.90
2018-06-03T03:35:38.490Z,99.90
2018-06-03T03:38:07.185Z,99.90
2018-06-03T03:40:35.848Z,99.90
2018-06-03T03:43:04.576Z,99.90
2018-06-03T03:45:33.414Z,99.90
2018-06-03T03:48:02.183Z,99.90
2018-06-03T03:50:30.858Z,99.90
2018-06-03T03:52:59.543Z,99.90
2018-06-03T03:55:28.962Z,99.90
2018-06-03T03:57:57.626Z,99.90
2018-06-03T04:00:26.321Z,99.90
2018-06-03T04:02:54.986Z,99.90
2018-06-03T04:05:23.719Z,99.90
2018-06-03T04:07:52.412Z,99.90
2018-06-03T04:10:21.053Z,99.90
2018-06-03T04:12:49.772Z,99.90
2018-06-03T04:15:18.798Z,99.90
2018-06-03T04:17:47.689Z,99.90
2018-06-03T04:20:16.831Z,99.90
2018-06-03T04:22:45.784Z,99.90
2018-06-03T04:25:14.906Z,99.90
2018-06-03T04:27:43.829Z,99.90
2018-06-03T04:30:12.903Z,99.90
2018-06-03T04:32:41.594Z,99.90
2018-06-03T04:35:10.259Z,99.90
2018-06-03T04:37:38.938Z,99.90
2018-06-03T04:40:07.607Z,99.90
2018-06-03T04:42:36.247Z,99.40
2018-06-03T04:45:05.068Z,99.90
2018-06-03T04:47:33.842Z,99.90
2018-06-03T04:50:02.593Z,98.70
2018-06-03T04:52:31.369Z,98.80
2018-06-03T04:55:00.057Z,99.10
2018-06-03T04:57:28.748Z,99.30
2018-06-03T04:59:57.406Z,96.90
2018-06-03T05:02:26.037Z,97.20
2018-06-03T05:04:54.693Z,95.20
2018-06-03T05:07:23.360Z,95.80
2018-06-03T05:09:52.026Z,97.10
2018-06-03T05:12:20.795Z,95.50
2018-06-03T05:14:49.650Z,94.30
2018-06-03T05:17:18.452Z,92.00
2018-06-03T05:19:47.313Z,92.40
2018-06-03T05:22:16.180Z,92.50
2018-06-03T05:24:45.279Z,92.50
2018-06-03T05:27:14.128Z,92.50
2018-06-03T05:29:42.988Z,91.70
2018-06-03T05:32:11.778Z,91.00
2018-06-03T05:34:40.448Z,91.20
2018-06-03T05:37:09.427Z,88.00
2018-06-03T05:39:38.539Z,89.00
2018-06-03T05:42:07.256Z,88.60
2018-06-03T05:44:36.145Z,87.60
2018-06-03T05:47:05.076Z,89.20
2018-06-03T05:49:33.944Z,87.20
2018-06-03T05:52:02.839Z,88.60
2018-06-03T05:54:31.611Z,88.10
2018-06-03T05:57:00.319Z,87.70
2018-06-03T05:59:28.986Z,87.80
2018-06-03T06:01:57.647Z,89.40
2018-06-03T06:04:26.263Z,87.80
2018-06-03T06:06:54.939Z,86.10
2018-06-03T06:09:23.615Z,86.10
2018-06-03T06:11:52.261Z,85.90
2018-06-03T06:14:20.925Z,89.20
2018-06-03T06:16:49.630Z,87.00
2018-06-03T06:19:18.405Z,86.00
2018-06-03T06:21:47.197Z,87.00
2018-06-03T06:24:15.997Z,89.70
2018-06-03T06:26:44.858Z,85.20
2018-06-03T06:29:13.602Z,88.10
2018-06-03T06:31:42.407Z,85.60
2018-06-03T06:34:11.209Z,84.40
2018-06-03T06:36:39.957Z,84.80
2018-06-03T06:39:08.720Z,80.90
2018-06-03T06:41:37.422Z,80.90
2018-06-03T06:44:06.150Z,82.00
2018-06-03T06:46:34.911Z,80.50
2018-06-03T06:49:03.608Z,83.30
2018-06-03T06:51:32.279Z,82.00
2018-06-03T06:54:00.998Z,80.20
2018-06-03T06:56:29.635Z,80.30
2018-06-03T06:58:58.385Z,83.50
2018-06-03T07:01:27.194Z,80.00
2018-06-03T07:03:55.910Z,83.10
2018-06-03T07:06:24.884Z,79.60
2018-06-03T07:08:53.893Z,80.40
2018-06-03T07:11:22.800Z,81.10
2018-06-03T07:13:51.655Z,80.00
2018-06-03T07:16:20.516Z,78.80
2018-06-03T07:18:49.180Z,78.80
2018-06-03T07:21:17.841Z,76.30
2018-06-03T07:23:46.522Z,80.30
2018-06-03T07:26:15.182Z,78.20
2018-06-03T07:28:43.953Z,74.20
2018-06-03T07:31:12.698Z,76.20
2018-06-03T07:33:41.501Z,78.40
2018-06-03T07:36:10.299Z,80.60
2018-06-03T07:38:38.951Z,79.30
2018-06-03T07:41:07.637Z,77.60
2018-06-03T07:43:36.401Z,78.60
2018-06-03T07:46:06.583Z,78.30
2018-06-03T07:48:36.138Z,78.20
2018-06-03T07:51:06.223Z,79.90
2018-06-03T07:53:36.607Z,80.20
2018-06-03T07:56:06.278Z,78.70
2018-06-03T07:58:34.954Z,78.80
2018-06-03T08:01:03.757Z,79.20
2018-06-03T08:03:32.967Z,76.60
2018-06-03T08:06:01.793Z,76.30
2018-06-03T08:08:30.451Z,73.90
2018-06-03T08:10:59.142Z,73.80
2018-06-03T08:13:29.024Z,72.20
2018-06-03T08:15:57.834Z,71.20
2018-06-03T08:18:26.645Z,73.00
2018-06-03T08:20:55.786Z,70.90
2018-06-03T08:23:24.779Z,72.20
2018-06-03T08:25:53.652Z,73.90
2018-06-03T08:28:22.436Z,71.80
2018-06-03T08:30:51.173Z,73.60
2018-06-03T08:33:19.872Z,73.10
2018-06-03T08:35:48.580Z,73.60
2018-06-03T08:38:17.297Z,70.70
2018-06-03T08:40:46.525Z,74.80
2018-06-03T08:43:15.171Z,74.80
2018-06-03T08:45:43.902Z,72.70
2018-06-03T08:48:12.683Z,70.60
2018-06-03T08:50:41.353Z,69.20
2018-06-03T08:53:10.070Z,69.40
2018-06-03T08:55:38.703Z,70.60
2018-06-03T08:58:07.326Z,70.70
2018-06-03T09:00:35.990Z,73.50
2018-06-03T09:03:04.651Z,70.30
2018-06-03T09:05:33.262Z,76.30
2018-06-03T09:08:01.911Z,75.20
2018-06-03T09:10:30.561Z,72.00
2018-06-03T09:12:59.279Z,69.50
2018-06-03T09:15:28.131Z,70.20
2018-06-03T09:17:56.932Z,72.30
2018-06-03T09:20:25.980Z,68.50
2018-06-03T09:22:54.935Z,70.70
2018-06-03T09:25:23.782Z,69.10
2018-06-03T09:27:52.558Z,71.50
2018-06-03T09:30:21.324Z,67.30
2018-06-03T09:32:50.363Z,71.00
2018-06-03T09:35:19.018Z,70.70
2018-06-03T09:37:47.844Z,70.60
2018-06-03T09:40:16.705Z,68.10
2018-06-03T09:42:45.359Z,68.20
2018-06-03T09:45:15.060Z,68.00
2018-06-03T09:47:43.758Z,70.90
2018-06-03T09:50:13.074Z,66.70
2018-06-03T09:52:41.887Z,71.60
2018-06-03T09:55:11.328Z,71.50
2018-06-03T09:57:39.983Z,68.60
2018-06-03T10:00:08.890Z,72.20
2018-06-03T10:02:37.964Z,69.50
2018-06-03T10:05:06.607Z,64.40
2018-06-03T10:07:35.263Z,65.90
2018-06-03T10:10:03.960Z,67.60
2018-06-03T10:12:32.620Z,65.10
2018-06-03T10:15:01.763Z,66.00
2018-06-03T10:17:30.599Z,63.40
2018-06-03T10:19:59.337Z,60.20
2018-06-03T10:22:28.209Z,62.80
2018-06-03T10:24:57.025Z,61.10
2018-06-03T10:27:26.189Z,63.50
2018-06-03T10:29:56.950Z,61.00
2018-06-03T10:32:25.896Z,62.50
2018-06-03T10:34:56.769Z,59.40
2018-06-03T10:37:25.684Z,55.30
2018-06-03T10:39:54.512Z,58.70
2018-06-03T10:42:23.272Z,59.90
2018-06-03T10:44:52.165Z,59.40
2018-06-03T10:47:21.002Z,55.40
2018-06-03T10:49:49.667Z,53.70
2018-06-03T10:52:21.485Z,53.70
2018-06-03T10:54:50.467Z,55.30
2018-06-03T10:57:19.685Z,54.70
2018-06-03T10:59:48.341Z,52.70
2018-06-03T11:02:17.266Z,52.50
2018-06-03T11:04:50.057Z,49.00
2018-06-03T11:07:24.112Z,47.60
2018-06-03T11:09:53.720Z,48.90
2018-06-03T11:12:22.576Z,44.90
2018-06-03T11:14:51.682Z,47.20
2018-06-03T11:17:20.442Z,44.90
2018-06-03T11:19:49.098Z,41.50
2018-06-03T11:22:17.870Z,41.40
2018-06-03T11:24:46.639Z,39.70
2018-06-03T11:27:15.313Z,42.10
2018-06-03T11:29:44.016Z,38.10
2018-06-03T11:32:12.702Z,38.80
2018-06-03T11:34:41.472Z,38.60
2018-06-03T11:37:10.702Z,41.00
2018-06-03T11:39:39.538Z,38.80
2018-06-03T11:42:08.919Z,38.90
2018-06-03T11:44:37.914Z,39.00
2018-06-03T11:47:07.046Z,41.10
2018-06-03T11:49:36.612Z,38.70
2018-06-03T11:52:06.689Z,41.30
2018-06-03T11:54:35.865Z,40.80
2018-06-03T11:57:05.314Z,42.50
2018-06-03T11:59:41.706Z,45.80
2018-06-03T12:02:11.295Z,43.60
2018-06-03T12:04:40.057Z,45.20
2018-06-03T12:07:09.175Z,42.20
2018-06-03T12:09:38.064Z,41.20
2018-06-03T12:12:11.425Z,41.60
2018-06-03T12:14:40.246Z,38.80
2018-06-03T12:17:09.043Z,40.00
2018-06-03T12:19:38.561Z,38.50
2018-06-03T12:22:07.768Z,38.60
2018-06-03T12:24:37.283Z,38.00
2018-06-03T12:27:08.865Z,40.40
2018-06-03T12:29:38.076Z,37.80
2018-06-03T12:32:10.883Z,38.40
2018-06-03T12:34:40.097Z,37.00
2018-06-03T12:37:09.186Z,39.10
2018-06-03T12:39:37.990Z,35.60
2018-06-03T12:42:06.819Z,37.50
2018-06-03T12:44:35.739Z,35.20
2018-06-03T12:47:04.583Z,35.00
2018-06-03T12:49:33.279Z,31.60
2018-06-03T12:52:01.941Z,31.30
2018-06-03T12:54:30.729Z,28.30
2018-06-03T12:56:59.536Z,28.20
2018-06-03T12:59:28.188Z,27.90
2018-06-03T13:01:59.348Z,26.90
2018-06-03T13:04:27.981Z,29.00
2018-06-03T13:09:25.123Z,26.30
2018-06-03T13:11:53.908Z,28.90
2018-06-03T13:14:22.755Z,30.60
2018-06-03T13:16:51.419Z,30.90
2018-06-03T13:19:20.108Z,30.00
2018-06-03T13:21:48.764Z,30.50
2018-06-03T13:24:17.431Z,28.90
2018-06-03T13:26:46.043Z,29.00
2018-06-03T13:29:14.673Z,27.10
2018-06-03T13:31:43.350Z,29.40
2018-06-03T13:34:11.995Z,27.50
2018-06-03T13:36:40.650Z,29.10
2018-06-03T13:39:09.353Z,27.50
2018-06-03T13:41:38.150Z,29.10
2018-06-03T13:44:06.973Z,33.50
2018-06-03T13:46:35.946Z,28.30
2018-06-03T13:49:04.985Z,29.10
2018-06-03T13:51:33.626Z,28.60
2018-06-03T13:54:02.414Z,29.70
2018-06-03T13:56:31.051Z,29.00
2018-06-03T13:58:59.716Z,31.60
2018-06-03T14:01:28.443Z,31.30
2018-06-03T14:03:57.108Z,30.90
2018-06-03T14:06:25.881Z,32.60
2018-06-03T14:08:54.680Z,33.70
2018-06-03T14:11:23.482Z,31.50
2018-06-03T14:13:52.158Z,32.80
2018-06-03T14:16:20.880Z,34.80
2018-06-03T14:18:49.547Z,34.60
2018-06-03T14:21:18.201Z,35.10
2018-06-03T14:23:46.858Z,31.10
2018-06-03T14:26:15.599Z,34.20
2018-06-03T14:28:44.216Z,34.60
2018-06-03T14:31:12.875Z,35.20
2018-06-03T14:33:41.602Z,32.30
2018-06-03T14:36:10.297Z,33.70
2018-06-03T14:38:39.117Z,33.60
2018-06-03T14:41:07.938Z,31.90
2018-06-03T14:43:36.731Z,33.00
2018-06-03T14:46:06.036Z,32.70
2018-06-03T14:48:34.895Z,32.00
2018-06-03T14:51:03.568Z,32.20
2018-06-03T14:53:32.440Z,30.50
2018-06-03T14:56:01.287Z,31.10
2018-06-03T14:58:29.966Z,30.50
2018-06-03T15:01:01.103Z,28.50
2018-06-03T15:03:35.421Z,29.40
2018-06-03T15:06:04.532Z,31.50
2018-06-03T15:08:33.218Z,31.90
2018-06-03T15:11:01.894Z,32.20
2018-06-03T15:13:30.603Z,33.00
2018-06-03T15:15:59.231Z,30.60
2018-06-03T15:18:28.206Z,29.40
2018-06-03T15:20:57.083Z,29.10
2018-06-03T15:23:25.845Z,29.10
2018-06-03T15:25:54.671Z,28.40
2018-06-03T15:28:30.281Z,31.10
2018-06-03T15:30:59.357Z,30.00
2018-06-03T15:33:28.768Z,31.60
2018-06-03T15:35:57.685Z,31.00
2018-06-03T15:38:26.426Z,30.50
2018-06-03T15:40:55.173Z,31.10
2018-06-03T15:43:23.905Z,29.90
2018-06-03T15:45:52.562Z,31.50
2018-06-03T15:48:21.207Z,26.90
2018-06-03T15:53:18.446Z,27.80
2018-06-03T15:55:47.102Z,28.70
2018-06-03T15:58:15.803Z,29.50
2018-06-03T16:00:44.588Z,28.90
2018-06-03T16:03:13.341Z,29.90
2018-06-03T16:05:42.034Z,28.90
2018-06-03T16:08:10.694Z,28.80
2018-06-03T16:10:39.415Z,30.20
2018-06-03T16:13:08.552Z,32.00
2018-06-03T16:15:37.601Z,32.50
2018-06-03T16:18:06.731Z,31.10
2018-06-03T16:20:35.558Z,30.10
2018-06-03T16:23:04.289Z,29.80
2018-06-03T16:25:33.470Z,30.50
2018-06-03T16:28:02.321Z,31.60
2018-06-03T16:30:31.415Z,31.90
2018-06-03T16:33:00.060Z,31.10
2018-06-03T16:35:28.774Z,30.90
2018-06-03T16:37:57.475Z,32.10
2018-06-03T16:40:28.959Z,31.60
2018-06-03T16:42:57.809Z,32.10
2018-06-03T16:45:27.036Z,33.70
2018-06-03T16:47:55.863Z,31.60
2018-06-03T16:50:24.746Z,33.70
2018-06-03T16:52:53.517Z,33.30
2018-06-03T16:55:25.512Z,33.50
2018-06-03T16:57:54.245Z,33.70
2018-06-03T17:00:23.077Z,33.60
2018-06-03T17:02:52.695Z,33.40
2018-06-03T17:05:21.637Z,34.30
2018-06-03T17:07:50.384Z,33.30
2018-06-03T17:10:19.155Z,34.10
2018-06-03T17:12:48.131Z,33.90
2018-06-03T17:15:17.205Z,34.10
2018-06-03T17:17:46.129Z,34.20
2018-06-03T17:20:15.864Z,35.40
2018-06-03T17:22:44.676Z,35.30
2018-06-03T17:25:15.227Z,36.70
2018-06-03T17:27:44.831Z,37.50
2018-06-03T17:30:13.542Z,37.40
2018-06-03T17:32:42.244Z,37.00
2018-06-03T17:35:16.330Z,37.40
2018-06-03T17:37:45.784Z,36.80
2018-06-03T17:40:14.683Z,35.90
2018-06-03T17:42:43.663Z,36.90
2018-06-03T17:45:13.500Z,37.10
2018-06-03T17:47:44.852Z,37.80
2018-06-03T17:50:14.035Z,39.00
2018-06-03T17:52:42.662Z,37.80
2018-06-03T17:55:11.316Z,38.60
2018-06-03T17:57:40.822Z,39.20
2018-06-03T18:00:09.968Z,38.80
2018-06-03T18:02:38.814Z,38.60
2018-06-03T18:05:08.110Z,39.70
2018-06-03T18:07:37.008Z,39.80
2018-06-03T18:10:05.863Z,38.90
2018-06-03T18:12:34.675Z,38.80
2018-06-03T18:15:03.447Z,38.50
2018-06-03T18:17:32.137Z,38.60
2018-06-03T18:20:00.940Z,38.80
2018-06-03T18:22:29.709Z,39.20
2018-06-03T18:24:58.409Z,40.30
2018-06-03T18:27:27.151Z,41.00
2018-06-03T18:29:55.904Z,43.00
2018-06-03T18:32:24.760Z,44.10
2018-06-03T18:34:53.802Z,43.40
2018-06-03T18:37:22.801Z,45.20
2018-06-03T18:39:51.485Z,44.70
2018-06-03T18:42:20.187Z,48.30
2018-06-03T18:44:48.896Z,50.20
2018-06-03T18:47:18.460Z,53.10
2018-06-03T18:49:47.279Z,54.30
2018-06-03T18:52:15.983Z,55.40
2018-06-03T18:54:44.958Z,57.50
2018-06-03T18:57:14.352Z,59.40
2018-06-03T18:59:45.351Z,60.20
2018-06-03T19:02:14.768Z,61.50
2018-06-03T19:04:43.820Z,63.60
2018-06-03T19:07:12.779Z,65.60
2018-06-03T19:09:42.749Z,68.40
2018-06-03T19:12:11.644Z,70.60
2018-06-03T19:14:40.517Z,70.20
2018-06-03T19:17:11.213Z,70.50
2018-06-03T19:19:40.105Z,71.20
2018-06-03T19:22:13.142Z,74.80
2018-06-03T19:24:41.878Z,75.60
2018-06-03T19:27:10.977Z,77.70
2018-06-03T19:29:39.864Z,80.00
2018-06-03T19:32:09.015Z,80.10
2018-06-03T19:34:38.114Z,79.90
2018-06-03T19:37:07.148Z,81.30
2018-06-03T19:39:36.153Z,81.90
2018-06-03T19:42:05.253Z,82.20
2018-06-03T19:44:34.088Z,83.70
2018-06-03T19:47:02.836Z,85.60
2018-06-03T19:49:31.619Z,86.90
2018-06-03T19:52:00.377Z,87.50
2018-06-03T19:54:31.031Z,89.10
2018-06-03T19:57:02.031Z,91.30
2018-06-03T19:59:30.751Z,92.60
2018-06-03T20:01:59.471Z,92.90
2018-06-03T20:04:28.256Z,94.40
2018-06-03T20:06:57.110Z,95.00
2018-06-03T20:09:26.018Z,96.60
2018-06-03T20:12:07.841Z,97.60
2018-06-03T20:14:37.230Z,98.80
2018-06-03T20:17:07.101Z,99.90
2018-06-03T20:19:36.070Z,99.90
2018-06-03T20:22:04.952Z,99.90
2018-06-03T20:24:33.963Z,99.90
2018-06-03T20:27:02.702Z,99.90
2018-06-03T20:29:32.601Z,99.90
2018-06-03T20:32:01.320Z,99.90
2018-06-03T20:34:30.139Z,99.90
2018-06-03T20:36:58.839Z,99.90
2018-06-03T20:39:27.773Z,99.90
2018-06-03T20:41:56.936Z,99.90
2018-06-03T20:44:25.651Z,99.90
2018-06-03T20:46:54.416Z,99.90
2018-06-03T20:49:23.588Z,99.90
2018-06-03T20:51:52.491Z,99.90
2018-06-03T20:54:21.558Z,99.90
2018-06-03T20:56:50.232Z,99.90
2018-06-03T20:59:18.907Z,99.90
2018-06-03T21:01:47.855Z,99.90
2018-06-03T21:04:16.467Z,99.90
2018-06-03T21:06:45.103Z,99.90
2018-06-03T21:09:13.806Z,99.90
2018-06-03T21:11:42.697Z,99.90
2018-06-03T21:14:11.427Z,99.90
2018-06-03T21:16:40.308Z,99.90
2018-06-03T21:19:09.427Z,99.90
2018-06-03T21:21:38.529Z,99.90
2018-06-03T21:24:07.501Z,99.90
2018-06-03T21:26:36.349Z,99.90
2018-06-03T21:29:05.188Z,99.90
2018-06-03T21:31:34.563Z,99.90
2018-06-03T21:34:03.212Z,99.90
2018-06-03T21:36:31.842Z,99.90
2018-06-03T21:39:00.496Z,99.90
2018-06-03T21:41:29.150Z,99.90
2018-06-03T21:43:57.772Z,99.90
2018-06-03T21:46:26.507Z,99.90
2018-06-03T21:48:55.259Z,99.90
2018-06-03T21:51:23.989Z,99.90
2018-06-03T21:53:52.701Z,99.90
2018-06-03T21:56:21.344Z,99.90
2018-06-03T21:58:50.000Z,99.90
2018-06-03T22:01:18.647Z,99.90
2018-06-03T22:03:47.296Z,99.90
2018-06-03T22:06:15.921Z,99.90
2018-06-03T22:08:44.599Z,99.90
2018-06-03T22:11:13.206Z,99.90
2018-06-03T22:13:41.923Z,99.90
2018-06-03T22:16:10.799Z,99.90
2018-06-03T22:18:39.642Z,99.90
2018-06-03T22:21:08.467Z,99.90
2018-06-03T22:23:37.398Z,99.90
2018-06-03T22:26:06.159Z,99.90
2018-06-03T22:28:35.024Z,99.90
2018-06-03T22:31:03.942Z,99.90
2018-06-03T22:33:32.596Z,99.90
2018-06-03T22:36:01.266Z,99.90
2018-06-03T22:38:29.954Z,99.90
2018-06-03T22:40:58.607Z,99.90
2018-06-03T22:43:27.255Z,99.90
2018-06-03T22:45:55.962Z,99.90
2018-06-03T22:48:24.688Z,99.90
2018-06-03T22:50:53.354Z,99.90
2018-06-03T22:53:22.115Z,99.90
2018-06-03T22:55:50.789Z,99.90
2018-06-03T22:58:19.460Z,99.90
2018-06-03T23:00:48.198Z,99.90
2018-06-03T23:03:17.121Z,99.90
2018-06-03T23:05:45.769Z,99.90
2018-06-03T23:08:14.468Z,99.90
2018-06-03T23:10:43.249Z,99.90
2018-06-03T23:13:11.944Z,99.90
2018-06-03T23:15:40.723Z,99.90
2018-06-03T23:18:09.459Z,99.90
2018-06-03T23:20:38.434Z,99.90
2018-06-03T23:23:07.311Z,99.90
2018-06-03T23:25:36.227Z,99.90
2018-06-03T23:28:05.104Z,99.90
2018-06-03T23:30:33.839Z,99.90
2018-06-03T23:33:02.502Z,99.90
2018-06-03T23:35:31.169Z,99.90
2018-06-03T23:37:59.844Z,99.90
2018-06-03T23:40:28.504Z,99.90
2018-06-03T23:42:57.178Z,99.90
2018-06-03T23:45:25.972Z,99.90
2018-06-03T23:47:54.730Z,99.90
2018-06-03T23:50:23.467Z,99.90
2018-06-03T23:52:52.226Z,99.90
2018-06-03T23:55:20.922Z,99.90
2018-06-03T23:57:49.611Z,99.90
